createdAt,value
2022-09-28T00:01:08.659Z,8.33
2022-09-28T00:03:38.327Z,5.67
2022-09-28T00:06:07.102Z,6.90
2022-09-28T00:08:35.308Z,5.17
2022-09-28T00:11:05.216Z,4.90
2022-09-28T00:13:33.280Z,4.97
2022-09-28T00:16:02.248Z,6.87
2022-09-28T00:18:30.124Z,7.30
2022-09-28T00:21:02.595Z,4.80
2022-09-28T00:23:30.354Z,6.20
2022-09-28T00:25:58.212Z,5.37
2022-09-28T00:28:27.708Z,5.27
2022-09-28T00:30:56.729Z,6.77
2022-09-28T00:33:24.732Z,5.93
2022-09-28T00:35:59.317Z,7.43
2022-09-28T00:38:28.972Z,10.83
2022-09-28T00:40:57.236Z,8.17
2022-09-28T00:43:25.259Z,7.80
2022-09-28T00:45:58.399Z,7.03
2022-09-28T00:48:28.848Z,7.20
2022-09-28T00:50:58.063Z,7.40
2022-09-28T00:53:27.981Z,8.80
2022-09-28T00:55:57.508Z,8.43
2022-09-28T00:58:27.659Z,7.30
2022-09-28T01:00:58.999Z,8.80
2022-09-28T01:03:27.191Z,7.93
2022-09-28T01:05:55.959Z,10.07
2022-09-28T01:08:25.208Z,13.53
2022-09-28T01:10:53.069Z,16.20
2022-09-28T01:13:21.640Z,35.60
2022-09-28T01:15:54.955Z,22.97
2022-09-28T01:18:28.432Z,17.57
2022-09-28T01:20:58.565Z,24.60
2022-09-28T01:23:44.255Z,16.63
2022-09-28T01:26:33.285Z,43.33
2022-09-28T01:29:05.675Z,52.80
2022-09-28T01:31:35.313Z,22.97
2022-09-28T01:34:05.203Z,42.20
2022-09-28T01:36:36.864Z,29.10
2022-09-28T01:39:07.338Z,58.73
2022-09-28T01:41:38.359Z,26.17
2022-09-28T01:44:09.458Z,22.40
2022-09-28T01:46:42.279Z,23.77
2022-09-28T01:49:12.237Z,31.57
2022-09-28T01:51:42.402Z,23.10
2022-09-28T01:54:13.409Z,20.03
2022-09-28T01:56:43.337Z,36.03
2022-09-28T01:59:15.157Z,65.13
2022-09-28T02:01:46.054Z,30.70
2022-09-28T02:04:16.098Z,17.27
2022-09-28T02:06:47.376Z,55.07
2022-09-28T02:09:18.429Z,59.57
2022-09-28T02:11:49.325Z,36.07
2022-09-28T02:14:19.807Z,25.03
2022-09-28T02:16:48.902Z,96.80
2022-09-28T02:19:18.109Z,72.60
2022-09-28T02:21:49.463Z,27.30
2022-09-28T02:24:21.669Z,39.23
2022-09-28T02:26:51.727Z,66.33
2022-09-28T02:29:21.133Z,67.43
2022-09-28T02:31:49.255Z,38.63
2022-09-28T02:34:17.656Z,33.93
2022-09-28T02:36:47.159Z,105.63
2022-09-28T02:39:16.419Z,24.13
2022-09-28T02:41:51.187Z,33.50
2022-09-28T02:44:29.631Z,188.80
2022-09-28T02:46:59.807Z,105.70
2022-09-28T02:49:32.249Z,41.63
2022-09-28T02:52:10.569Z,50.57
2022-09-28T02:54:45.557Z,56.30
2022-09-28T02:57:17.124Z,21.20
2022-09-28T02:59:49.317Z,31.43
2022-09-28T03:02:22.573Z,91.73
2022-09-28T03:04:56.618Z,31.30
2022-09-28T03:07:27.940Z,89.43
2022-09-28T03:10:00.690Z,22.07
2022-09-28T03:12:30.187Z,17.57
2022-09-28T03:15:09.882Z,31.80
2022-09-28T03:17:37.960Z,25.73
2022-09-28T03:20:06.322Z,17.60
2022-09-28T03:22:34.184Z,42.87
2022-09-28T03:25:01.966Z,68.83
2022-09-28T03:27:30.021Z,25.90
2022-09-28T03:29:58.271Z,41.63
2022-09-28T03:32:27.820Z,18.33
2022-09-28T03:34:55.968Z,21.70
2022-09-28T03:37:24.186Z,41.83
2022-09-28T03:39:52.078Z,120.20
2022-09-28T03:42:20.065Z,35.17
2022-09-28T03:44:48.094Z,61.73
2022-09-28T03:47:17.949Z,150.93
2022-09-28T03:49:47.487Z,36.07
2022-09-28T03:52:15.625Z,51.10
2022-09-28T03:54:48.312Z,100.73
2022-09-28T03:57:17.395Z,25.43
2022-09-28T03:59:45.498Z,59.63
2022-09-28T04:02:13.406Z,30.90
2022-09-28T04:04:41.569Z,31.10
2022-09-28T04:07:10.933Z,16.73
2022-09-28T04:09:38.827Z,25.00
2022-09-28T04:12:07.985Z,18.77
2022-09-28T04:14:35.754Z,18.33
2022-09-28T04:17:03.819Z,19.57
2022-09-28T04:19:31.914Z,18.47
2022-09-28T04:22:00.814Z,17.67
2022-09-28T04:24:29.850Z,17.10
2022-09-28T04:27:17.849Z,15.80
2022-09-28T04:29:44.580Z,16.43
2022-09-28T04:32:13.199Z,16.33
2022-09-28T04:34:44.189Z,20.77
2022-09-28T04:37:13.943Z,20.47
2022-09-28T04:39:48.178Z,22.33
2022-09-28T04:42:17.151Z,24.40
2022-09-28T04:44:45.161Z,23.90
2022-09-28T04:47:13.072Z,22.27
2022-09-28T04:49:40.776Z,24.03
2022-09-28T04:52:08.846Z,23.17
2022-09-28T04:54:36.696Z,20.47
2022-09-28T04:57:06.280Z,18.30
2022-09-28T04:59:34.069Z,16.70
2022-09-28T05:02:02.042Z,16.50
2022-09-28T05:04:30.701Z,14.63
2022-09-28T05:06:58.497Z,15.93
2022-09-28T05:09:26.192Z,17.33
2022-09-28T05:11:54.210Z,23.87
2022-09-28T05:14:23.612Z,22.27
2022-09-28T05:16:51.417Z,23.60
2022-09-28T05:19:20.348Z,27.00
2022-09-28T05:21:49.288Z,40.37
2022-09-28T05:24:19.922Z,29.53
2022-09-28T05:26:47.688Z,34.37
2022-09-28T05:29:15.474Z,34.97
2022-09-28T05:31:44.874Z,39.53
2022-09-28T05:34:13.065Z,24.73
2022-09-28T05:36:42.934Z,29.73
2022-09-28T05:39:10.718Z,28.30
2022-09-28T05:41:38.734Z,30.63
2022-09-28T05:44:06.623Z,32.50
2022-09-28T05:46:34.330Z,21.60
2022-09-28T05:49:03.841Z,24.80
2022-09-28T05:51:31.620Z,32.27
2022-09-28T05:54:04.625Z,23.87
2022-09-28T05:56:34.027Z,21.93
2022-09-28T05:59:01.825Z,33.13
2022-09-28T06:01:30.264Z,24.27
2022-09-28T06:03:58.509Z,19.57
2022-09-28T06:06:28.081Z,23.73
2022-09-28T06:08:55.842Z,24.37
2022-09-28T06:11:28.117Z,24.03
2022-09-28T06:13:56.545Z,24.40
2022-09-28T06:16:25.796Z,33.83
2022-09-28T06:18:54.957Z,32.63
2022-09-28T06:21:22.683Z,25.30
2022-09-28T06:23:51.999Z,25.27
2022-09-28T06:26:19.896Z,22.87
2022-09-28T06:28:48.027Z,20.97
2022-09-28T06:31:15.892Z,19.67
2022-09-28T06:33:44.045Z,18.83
2022-09-28T06:36:13.833Z,19.23
2022-09-28T06:38:41.906Z,14.23
2022-09-28T06:41:12.140Z,20.80
2022-09-28T06:43:41.225Z,13.93
2022-09-28T06:46:09.882Z,14.43
2022-09-28T06:48:38.118Z,20.63
2022-09-28T06:51:07.173Z,21.43
2022-09-28T06:53:35.813Z,18.40
2022-09-28T06:56:05.071Z,20.70
2022-09-28T06:58:34.616Z,22.93
2022-09-28T07:01:03.657Z,20.07
2022-09-28T07:03:31.528Z,21.93
2022-09-28T07:05:59.463Z,20.17
2022-09-28T07:08:28.909Z,24.60
2022-09-28T07:10:57.315Z,19.13
2022-09-28T07:16:15.423Z,19.47
2022-09-28T07:18:43.242Z,18.57
2022-09-28T07:21:21.011Z,25.73
2022-09-28T07:23:54.293Z,23.60
2022-09-28T07:26:24.405Z,20.97
2022-09-28T07:28:52.677Z,15.57
2022-09-28T07:31:23.192Z,17.37
2022-09-28T07:33:54.288Z,14.40
2022-09-28T07:36:22.936Z,16.77
2022-09-28T07:38:50.929Z,10.70
2022-09-28T07:41:22.658Z,10.87
2022-09-28T07:43:51.116Z,14.27
2022-09-28T07:46:19.372Z,14.63
2022-09-28T07:48:52.610Z,8.07
2022-09-28T07:51:21.703Z,8.63
2022-09-28T07:53:50.857Z,8.40
2022-09-28T07:56:20.492Z,7.53
2022-09-28T07:58:48.829Z,7.60
2022-09-28T08:01:17.175Z,5.77
2022-09-28T08:03:47.342Z,5.43
2022-09-28T08:06:19.292Z,3.40
2022-09-28T08:08:49.412Z,5.77
2022-09-28T08:11:18.158Z,4.00
2022-09-28T08:13:47.498Z,6.50
2022-09-28T08:16:15.751Z,3.20
2022-09-28T08:18:43.555Z,4.53
2022-09-28T08:21:29.005Z,5.63
2022-09-28T08:23:58.305Z,3.63
2022-09-28T08:26:26.499Z,6.53
2022-09-28T08:28:54.477Z,4.77
2022-09-28T08:31:22.406Z,6.57
2022-09-28T08:33:53.809Z,6.37
2022-09-28T08:36:21.804Z,8.53
2022-09-28T08:38:49.654Z,5.50
2022-09-28T08:41:23.245Z,9.17
2022-09-28T08:43:55.436Z,7.17
2022-09-28T08:46:27.001Z,15.73
2022-09-28T08:49:20.710Z,9.70
2022-09-28T08:51:47.407Z,5.60
2022-09-28T08:54:21.540Z,7.53
2022-09-28T08:56:53.293Z,7.47
2022-09-28T08:59:22.131Z,5.87
2022-09-28T09:01:53.584Z,7.23
2022-09-28T09:04:23.709Z,6.07
2022-09-28T09:07:08.434Z,7.03
2022-09-28T09:09:41.615Z,5.03
2022-09-28T09:12:15.204Z,4.53
2022-09-28T09:14:55.322Z,6.83
2022-09-28T09:17:29.194Z,6.03
2022-09-28T09:20:04.450Z,6.73
2022-09-28T09:22:40.741Z,9.80
2022-09-28T09:25:16.450Z,5.37
2022-09-28T09:27:48.624Z,2.53
2022-09-28T09:30:20.110Z,6.37
2022-09-28T09:33:07.663Z,3.60
2022-09-28T09:35:49.717Z,2.90
2022-09-28T09:38:31.966Z,5.37
2022-09-28T09:41:05.588Z,4.10
2022-09-28T09:43:48.220Z,7.37
2022-09-28T09:46:19.986Z,8.07
2022-09-28T09:48:51.063Z,4.20
2022-09-28T09:51:25.130Z,4.40
2022-09-28T09:53:56.573Z,3.80
2022-09-28T09:56:28.837Z,8.80
2022-09-28T09:58:58.878Z,6.63
2022-09-28T10:01:33.883Z,6.73
2022-09-28T10:04:02.036Z,3.73
2022-09-28T10:06:32.850Z,5.60
2022-09-28T10:09:03.061Z,4.37
2022-09-28T10:11:34.210Z,2.67
2022-09-28T10:14:02.091Z,4.30
2022-09-28T10:16:31.553Z,2.30
2022-09-28T10:19:01.542Z,3.10
2022-09-28T10:21:30.334Z,2.53
2022-09-28T10:23:59.263Z,4.60
2022-09-28T10:26:29.783Z,4.77
2022-09-28T10:28:59.380Z,3.73
2022-09-28T10:31:39.407Z,3.63
2022-09-28T10:34:08.624Z,4.10
2022-09-28T10:36:46.102Z,3.40
2022-09-28T10:39:25.082Z,7.10
2022-09-28T10:41:53.126Z,4.23
2022-09-28T10:44:21.469Z,3.50
2022-09-28T10:46:58.344Z,3.00
2022-09-28T10:49:28.597Z,4.33
2022-09-28T10:51:57.442Z,4.70
2022-09-28T10:54:26.980Z,3.77
2022-09-28T10:56:55.799Z,3.73
2022-09-28T10:59:37.362Z,3.17
2022-09-28T11:02:15.490Z,3.40
2022-09-28T11:04:45.402Z,1.83
2022-09-28T11:07:18.206Z,2.93
2022-09-28T11:09:48.838Z,3.47
2022-09-28T11:12:19.726Z,2.70
2022-09-28T11:14:49.093Z,2.87
2022-09-28T11:17:18.828Z,2.67
2022-09-28T11:19:47.157Z,4.23
2022-09-28T11:22:26.327Z,2.93
2022-09-28T11:24:54.405Z,1.57
2022-09-28T11:27:23.636Z,1.80
2022-09-28T11:29:57.163Z,3.10
2022-09-28T11:32:30.169Z,1.33
2022-09-28T11:35:00.160Z,3.03
2022-09-28T11:37:46.154Z,3.77
2022-09-28T11:40:22.595Z,2.27
2022-09-28T11:42:53.934Z,3.43
2022-09-28T11:45:43.972Z,4.50
2022-09-28T11:48:15.681Z,3.15
2022-09-28T11:50:48.402Z,2.78
2022-09-28T11:53:31.376Z,2.27
2022-09-28T11:56:05.290Z,3.50
2022-09-28T11:58:38.728Z,2.38
2022-09-28T12:01:08.831Z,3.00
2022-09-28T12:03:41.844Z,2.60
2022-09-28T12:06:13.884Z,2.15
2022-09-28T12:08:44.468Z,1.40
2022-09-28T12:11:14.188Z,1.95
2022-09-28T12:13:44.512Z,2.78
2022-09-28T12:16:45.770Z,1.95
2022-09-28T12:19:06.960Z,2.13
2022-09-28T12:21:38.674Z,2.30
2022-09-28T12:24:11.599Z,2.85
2022-09-28T12:26:41.699Z,1.88
2022-09-28T12:29:14.337Z,5.07
2022-09-28T12:31:53.679Z,3.20
2022-09-28T12:34:23.663Z,2.80
2022-09-28T12:37:03.025Z,5.55
2022-09-28T12:39:56.518Z,2.17
2022-09-28T12:42:34.618Z,2.70
2022-09-28T12:45:23.534Z,2.07
2022-09-28T12:48:09.075Z,2.97
2022-09-28T12:50:47.669Z,5.47
2022-09-28T12:53:27.669Z,2.70
2022-09-28T12:55:59.092Z,2.83
2022-09-28T12:58:32.265Z,3.22
2022-09-28T13:01:04.984Z,2.67
2022-09-28T13:03:47.209Z,4.72
2022-09-28T13:06:32.640Z,1.63
2022-09-28T13:09:15.414Z,6.40
2022-09-28T13:11:49.314Z,5.80
2022-09-28T13:14:34.937Z,3.23
2022-09-28T13:17:06.158Z,5.03
2022-09-28T13:19:38.392Z,4.03
2022-09-28T13:22:11.390Z,1.85
2022-09-28T13:24:41.843Z,2.67
2022-09-28T13:27:14.750Z,2.67
2022-09-28T13:29:43.101Z,2.20
2022-09-28T13:32:12.446Z,5.90
2022-09-28T13:34:40.500Z,2.60
2022-09-28T13:37:20.398Z,3.60
2022-09-28T13:39:52.923Z,10.23
2022-09-28T13:42:26.530Z,2.67
2022-09-28T13:45:03.739Z,5.77
2022-09-28T13:47:45.080Z,3.70
2022-09-28T13:50:21.606Z,5.17
2022-09-28T13:52:53.544Z,2.88
2022-09-28T13:55:27.660Z,1.85
2022-09-28T13:57:59.829Z,8.47
2022-09-28T14:00:30.730Z,4.47
2022-09-28T14:03:01.912Z,4.47
2022-09-28T14:05:55.615Z,6.87
2022-09-28T14:08:29.038Z,7.33
2022-09-28T14:10:57.648Z,4.20
2022-09-28T14:13:44.346Z,3.30
2022-09-28T14:16:24.181Z,4.50
2022-09-28T14:18:55.093Z,4.28
2022-09-28T14:21:56.150Z,3.87
2022-09-28T14:24:28.663Z,3.25
2022-09-28T14:27:12.393Z,2.47
2022-09-28T14:29:40.428Z,2.60
2022-09-28T14:32:23.243Z,3.40
2022-09-28T14:34:58.253Z,1.92
2022-09-28T14:37:46.090Z,1.42
2022-09-28T14:40:38.028Z,3.58
2022-09-28T14:43:24.857Z,2.33
2022-09-28T14:45:54.692Z,2.03
2022-09-28T14:48:43.665Z,3.28
2022-09-28T14:51:30.280Z,4.30
2022-09-28T14:54:01.386Z,4.47
2022-09-28T14:56:32.795Z,5.20
2022-09-28T14:59:02.270Z,5.67
2022-09-28T15:01:30.625Z,3.70
2022-09-28T15:04:00.582Z,4.17
2022-09-28T15:06:44.533Z,2.30
2022-09-28T15:09:27.497Z,2.77
2022-09-28T15:12:01.929Z,5.90
2022-09-28T15:14:32.049Z,3.77
2022-09-28T15:17:03.688Z,4.73
2022-09-28T15:19:33.681Z,4.50
2022-09-28T15:22:01.671Z,2.73
2022-09-28T15:24:32.707Z,3.30
2022-09-28T15:27:02.439Z,4.40
2022-09-28T15:29:31.814Z,6.50
2022-09-28T15:32:00.595Z,8.27
2022-09-28T15:34:49.174Z,11.47
2022-09-28T15:37:19.159Z,5.00
2022-09-28T15:39:48.301Z,8.67
2022-09-28T15:42:18.599Z,14.93
2022-09-28T15:45:01.465Z,2.40
2022-09-28T15:47:29.816Z,4.40
2022-09-28T15:49:59.487Z,4.43
2022-09-28T15:52:29.701Z,3.70
2022-09-28T15:55:01.019Z,4.13
2022-09-28T15:57:33.596Z,6.30
2022-09-28T16:00:02.002Z,3.23
2022-09-28T16:02:30.041Z,7.20
2022-09-28T16:05:00.807Z,3.67
2022-09-28T16:07:32.321Z,5.03
2022-09-28T16:10:02.212Z,2.03
2022-09-28T16:12:35.043Z,4.43
2022-09-28T16:15:06.726Z,3.47
2022-09-28T16:17:35.674Z,7.50
2022-09-28T16:20:05.475Z,3.40
2022-09-28T16:22:34.308Z,7.40
2022-09-28T16:25:03.029Z,2.43
2022-09-28T16:27:40.876Z,4.00
2022-09-28T16:30:16.487Z,3.77
2022-09-28T16:32:50.528Z,2.57
2022-09-28T16:35:21.228Z,2.00
2022-09-28T16:37:51.115Z,2.77
2022-09-28T16:40:19.221Z,4.50
2022-09-28T16:42:49.465Z,1.27
2022-09-28T16:45:20.095Z,2.13
2022-09-28T16:47:53.078Z,3.37
2022-09-28T16:50:21.608Z,3.40
2022-09-28T16:53:08.132Z,5.00
2022-09-28T16:55:40.680Z,1.73
2022-09-28T16:58:13.200Z,3.20
2022-09-28T17:00:43.583Z,2.07
2022-09-28T17:03:13.952Z,1.60
2022-09-28T17:05:41.664Z,1.70
2022-09-28T17:08:12.518Z,2.77
2022-09-28T17:11:02.464Z,4.67
2022-09-28T17:13:35.021Z,1.80
2022-09-28T17:16:04.478Z,4.00
2022-09-28T17:18:32.339Z,2.77
2022-09-28T17:21:04.458Z,2.30
2022-09-28T17:23:32.688Z,4.23
2022-09-28T17:26:00.722Z,0.80
2022-09-28T17:28:31.478Z,3.60
2022-09-28T17:31:00.840Z,1.17
2022-09-28T17:33:29.706Z,1.17
2022-09-28T17:36:00.192Z,4.17
2022-09-28T17:38:29.125Z,3.23
2022-09-28T17:40:58.955Z,3.90
2022-09-28T17:43:26.956Z,2.53
2022-09-28T17:45:54.886Z,6.43
2022-09-28T17:48:24.479Z,2.87
2022-09-28T17:50:52.361Z,2.60
2022-09-28T17:53:20.317Z,3.90
2022-09-28T17:55:48.382Z,5.93
2022-09-28T17:58:18.263Z,3.43
2022-09-28T18:00:47.145Z,3.23
2022-09-28T18:03:16.700Z,2.07
2022-09-28T18:05:47.598Z,2.37
2022-09-28T18:08:16.859Z,3.40
2022-09-28T18:10:46.912Z,4.37
2022-09-28T18:13:15.255Z,5.47
2022-09-28T18:15:43.142Z,5.90
2022-09-28T18:18:13.082Z,11.80
2022-09-28T18:20:42.057Z,9.77
2022-09-28T18:23:11.652Z,8.60
2022-09-28T18:25:40.799Z,9.03
2022-09-28T18:28:08.526Z,12.03
2022-09-28T18:30:39.415Z,14.70
2022-09-28T18:33:07.459Z,16.10
2022-09-28T18:35:35.535Z,11.13
2022-09-28T18:38:05.298Z,15.97
2022-09-28T18:40:34.673Z,9.87
2022-09-28T18:43:02.547Z,8.90
2022-09-28T18:45:30.526Z,19.33
2022-09-28T18:47:58.648Z,13.73
2022-09-28T18:50:26.887Z,16.40
2022-09-28T18:52:55.203Z,16.53
2022-09-28T18:55:22.852Z,12.37
2022-09-28T18:57:52.536Z,6.43
2022-09-28T19:00:21.417Z,9.03
2022-09-28T19:02:49.977Z,5.83
2022-09-28T19:05:18.963Z,12.60
2022-09-28T19:07:46.606Z,5.23
2022-09-28T19:10:14.569Z,11.50
2022-09-28T19:12:42.273Z,7.50
2022-09-28T19:15:11.792Z,6.50
2022-09-28T19:17:39.907Z,8.60
2022-09-28T19:20:07.989Z,5.23
2022-09-28T19:22:35.644Z,4.67
2022-09-28T19:25:03.606Z,9.50
2022-09-28T19:27:31.396Z,8.40
2022-09-28T19:29:59.091Z,7.67
2022-09-28T19:32:28.344Z,7.30
2022-09-28T19:34:56.338Z,5.50
2022-09-28T19:37:24.103Z,4.67
2022-09-28T19:39:51.790Z,7.33
2022-09-28T19:42:19.567Z,6.23
2022-09-28T19:44:47.738Z,8.00
2022-09-28T19:47:18.876Z,6.17
2022-09-28T19:49:48.042Z,9.13
2022-09-28T19:52:17.504Z,9.37
2022-09-28T19:54:46.304Z,6.73
2022-09-28T19:57:16.299Z,10.73
2022-09-28T19:59:44.175Z,7.73
2022-09-28T20:02:14.374Z,8.73
2022-09-28T20:04:42.357Z,5.63
2022-09-28T20:07:11.811Z,12.30
2022-09-28T20:09:43.481Z,8.60
2022-09-28T20:12:11.400Z,7.77
2022-09-28T20:14:40.493Z,9.47
2022-09-28T20:17:08.736Z,7.03
2022-09-28T20:19:36.564Z,4.87
2022-09-28T20:22:05.026Z,7.47
2022-09-28T20:24:34.122Z,7.13
2022-09-28T20:27:02.595Z,6.23
2022-09-28T20:29:31.735Z,3.27
2022-09-28T20:32:00.495Z,3.83
2022-09-28T20:34:28.396Z,7.10
2022-09-28T20:36:56.527Z,5.67
2022-09-28T20:39:24.499Z,4.27
2022-09-28T20:41:55.133Z,4.47
2022-09-28T20:44:23.175Z,5.37
2022-09-28T20:46:51.164Z,6.30
2022-09-28T20:49:19.122Z,4.07
2022-09-28T20:51:49.324Z,5.20
2022-09-28T20:54:17.301Z,3.80
2022-09-28T20:56:47.603Z,6.37
2022-09-28T20:59:16.967Z,5.70
2022-09-28T21:01:45.304Z,4.90
2022-09-28T21:04:13.365Z,7.37
2022-09-28T21:06:44.461Z,6.07
2022-09-28T21:09:13.739Z,7.20
2022-09-28T21:11:41.620Z,7.67
2022-09-28T21:14:10.566Z,8.77
2022-09-28T21:16:40.449Z,5.03
2022-09-28T21:19:08.220Z,10.13
2022-09-28T21:21:35.988Z,9.50
2022-09-28T21:24:03.839Z,10.10
2022-09-28T21:26:31.999Z,11.63
2022-09-28T21:29:00.368Z,10.40
2022-09-28T21:31:30.302Z,8.73
2022-09-28T21:34:00.826Z,11.90
2022-09-28T21:36:29.081Z,8.60
2022-09-28T21:38:57.572Z,6.73
2022-09-28T21:41:25.688Z,6.60
2022-09-28T21:43:54.174Z,9.67
2022-09-28T21:46:22.210Z,5.00
2022-09-28T21:48:52.521Z,5.93
2022-09-28T21:51:22.006Z,7.63
2022-09-28T21:53:50.360Z,8.83
2022-09-28T21:56:18.159Z,5.50
2022-09-28T21:58:45.924Z,5.07
2022-09-28T22:01:15.690Z,6.10
2022-09-28T22:03:44.109Z,6.30
2022-09-28T22:06:12.482Z,7.23
2022-09-28T22:08:41.927Z,10.47
2022-09-28T22:11:10.485Z,7.50
2022-09-28T22:13:40.809Z,8.63
2022-09-28T22:16:08.696Z,6.13
2022-09-28T22:18:36.849Z,5.37
2022-09-28T22:21:06.581Z,5.80
2022-09-28T22:23:34.687Z,3.77
2022-09-28T22:26:05.388Z,5.97
2022-09-28T22:28:33.214Z,8.73
2022-09-28T22:31:01.294Z,6.13
2022-09-28T22:33:29.122Z,7.50
2022-09-28T22:35:57.248Z,5.40
2022-09-28T22:38:25.982Z,7.73
2022-09-28T22:40:55.041Z,5.60
2022-09-28T22:43:24.868Z,8.83
2022-09-28T22:46:01.569Z,6.77
2022-09-28T22:48:29.196Z,4.93
2022-09-28T22:50:57.238Z,12.43
2022-09-28T22:53:25.603Z,6.20
2022-09-28T22:55:53.276Z,8.13
2022-09-28T22:58:21.819Z,5.77
2022-09-28T23:00:51.305Z,8.53
2022-09-28T23:03:19.224Z,6.67
2022-09-28T23:05:52.898Z,7.77
2022-09-28T23:08:20.731Z,5.17
2022-09-28T23:10:48.747Z,6.43
2022-09-28T23:13:16.729Z,5.10
2022-09-28T23:15:45.766Z,5.47
2022-09-28T23:18:14.961Z,6.23
2022-09-28T23:20:42.681Z,7.27
2022-09-28T23:23:10.537Z,5.03
2022-09-28T23:25:38.244Z,5.50
2022-09-28T23:28:06.423Z,7.03
2022-09-28T23:30:34.653Z,6.27
2022-09-28T23:33:02.330Z,6.53
2022-09-28T23:35:31.818Z,11.63
2022-09-28T23:37:59.947Z,6.03
2022-09-28T23:40:27.711Z,6.33
2022-09-28T23:42:55.751Z,5.77
2022-09-28T23:45:23.711Z,8.93
2022-09-28T23:47:51.561Z,7.53
2022-09-28T23:50:21.403Z,4.80
2022-09-28T23:52:50.818Z,5.00
2022-09-28T23:55:19.144Z,7.20
2022-09-28T23:57:47.205Z,4.57
